sensor_id;sensor_type;location;lat;lon;timestamp;pressure;altitude;pressure_sealevel;temperature;humidity
61961;BME280;47923;42.506;24.192;2023-07-13T00:00:44;95792.44;;;19.98;74.41
61961;BME280;47923;42.506;24.192;2023-07-13T00:03:10;95774.13;;;19.87;74.54
61961;BME280;47923;42.506;24.192;2023-07-13T00:05:38;95291.22;;;16.67;76.09
61961;BME280;47923;42.506;24.192;2023-07-13T00:08:04;95604.47;;;18.67;76.45
61961;BME280;47923;42.506;24.192;2023-07-13T00:10:32;95695.38;;;19.23;76.64
61961;BME280;47923;42.506;24.192;2023-07-13T00:13:08;95771.53;;;19.77;76.83
61961;BME280;47923;42.506;24.192;2023-07-13T00:15:34;95578.06;;;18.46;75.28
61961;BME280;47923;42.506;24.192;2023-07-13T00:18:02;95773.16;;;19.71;75.28
61961;BME280;47923;42.506;24.192;2023-07-13T00:20:27;95270.75;;;16.41;74.56
61961;BME280;47923;42.506;24.192;2023-07-13T00:22:56;95666.03;;;18.90;74.84
61961;BME280;47923;42.506;24.192;2023-07-13T00:25:24;95758.06;;;19.52;74.62
61961;BME280;47923;42.506;24.192;2023-07-13T00:27:53;95758.75;;;19.63;73.84
61961;BME280;47923;42.506;24.192;2023-07-13T00:30:23;95748.94;;;19.66;73.36
61961;BME280;47923;42.506;24.192;2023-07-13T00:32:49;95719.75;;;19.48;75.30
61961;BME280;47923;42.506;24.192;2023-07-13T00:35:14;95651.84;;;18.98;75.77
61961;BME280;47923;42.506;24.192;2023-07-13T00:37:43;95747.47;;;19.57;76.22
61961;BME280;47923;42.506;24.192;2023-07-13T00:40:12;95741.59;;;19.55;76.28
61961;BME280;47923;42.506;24.192;2023-07-13T00:42:38;95745.59;;;19.47;75.98
61961;BME280;47923;42.506;24.192;2023-07-13T00:47:39;95591.53;;;18.30;77.46
61961;BME280;47923;42.506;24.192;2023-07-13T00:50:15;95670.66;;;18.93;76.28
61961;BME280;47923;42.506;24.192;2023-07-13T00:52:50;95499.06;;;17.69;75.75
61961;BME280;47923;42.506;24.192;2023-07-13T00:55:18;95552.97;;;18.14;78.15
61961;BME280;47923;42.506;24.192;2023-07-13T00:57:45;95693.03;;;18.88;77.04
61961;BME280;47923;42.506;24.192;2023-07-13T01:00:12;95733.72;;;19.23;76.65
61961;BME280;47923;42.506;24.192;2023-07-13T01:02:42;95739.19;;;19.23;76.32
61961;BME280;47923;42.506;24.192;2023-07-13T01:05:14;95645.97;;;18.59;76.66
61961;BME280;47923;42.506;24.192;2023-07-13T01:08:02;95727.53;;;19.16;77.40
61961;BME280;47923;42.506;24.192;2023-07-13T01:10:26;95732.25;;;19.15;78.09
61961;BME280;47923;42.506;24.192;2023-07-13T01:12:55;95732.66;;;19.14;77.13
61961;BME280;47923;42.506;24.192;2023-07-13T01:15:41;95729.97;;;19.10;78.19
61961;BME280;47923;42.506;24.192;2023-07-13T01:18:09;95732.06;;;18.95;79.17
61961;BME280;47923;42.506;24.192;2023-07-13T01:20:40;95725.47;;;18.86;78.89
61961;BME280;47923;42.506;24.192;2023-07-13T01:23:10;95723.56;;;18.83;79.88
61961;BME280;47923;42.506;24.192;2023-07-13T01:25:41;95660.56;;;18.41;80.30
61961;BME280;47923;42.506;24.192;2023-07-13T01:28:08;95717.41;;;18.71;80.17
61961;BME280;47923;42.506;24.192;2023-07-13T01:30:36;95607.44;;;17.94;80.57
61961;BME280;47923;42.506;24.192;2023-07-13T01:33:03;95717.06;;;18.62;80.56
61961;BME280;47923;42.506;24.192;2023-07-13T01:35:32;95663.03;;;18.25;76.74
61961;BME280;47923;42.506;24.192;2023-07-13T01:38:00;95715.09;;;18.63;77.04
61961;BME280;47923;42.506;24.192;2023-07-13T01:40:27;95283.19;;;15.72;77.62
61961;BME280;47923;42.506;24.192;2023-07-13T01:42:53;95559.97;;;17.70;76.77
61961;BME280;47923;42.506;24.192;2023-07-13T01:45:22;95397.19;;;16.65;76.13
61961;BME280;47923;42.506;24.192;2023-07-13T01:47:49;95712.69;;;18.72;76.91
61961;BME280;47923;42.506;24.192;2023-07-13T01:50:15;95715.06;;;18.70;78.95
61961;BME280;47923;42.506;24.192;2023-07-13T01:52:41;95710.00;;;18.65;79.99
61961;BME280;47923;42.506;24.192;2023-07-13T01:55:09;95703.00;;;18.60;80.28
61961;BME280;47923;42.506;24.192;2023-07-13T01:57:35;95720.66;;;18.52;80.24
61961;BME280;47923;42.506;24.192;2023-07-13T02:00:03;95415.31;;;16.23;79.85
61961;BME280;47923;42.506;24.192;2023-07-13T02:02:32;95724.28;;;18.38;79.42
61961;BME280;47923;42.506;24.192;2023-07-13T02:05:00;95725.06;;;18.39;79.59
61961;BME280;47923;42.506;24.192;2023-07-13T02:07:28;95728.16;;;18.44;80.42
61961;BME280;47923;42.506;24.192;2023-07-13T02:09:54;95577.66;;;17.48;79.98
61961;BME280;47923;42.506;24.192;2023-07-13T02:12:19;95722.31;;;18.39;80.68
61961;BME280;47923;42.506;24.192;2023-07-13T02:14:45;95736.84;;;18.32;81.13
61961;BME280;47923;42.506;24.192;2023-07-13T02:17:11;95645.81;;;17.69;81.80
61961;BME280;47923;42.506;24.192;2023-07-13T02:19:39;95717.41;;;18.16;81.07
61961;BME280;47923;42.506;24.192;2023-07-13T02:22:10;95735.31;;;18.24;81.59
61961;BME280;47923;42.506;24.192;2023-07-13T02:24:35;95646.97;;;17.75;82.73
61961;BME280;47923;42.506;24.192;2023-07-13T02:27:01;95523.72;;;16.96;82.99
61961;BME280;47923;42.506;24.192;2023-07-13T02:29:26;95722.56;;;18.07;83.72
61961;BME280;47923;42.506;24.192;2023-07-13T02:31:52;95569.69;;;17.05;84.20
61961;BME280;47923;42.506;24.192;2023-07-13T02:34:17;95740.91;;;18.03;84.61
61961;BME280;47923;42.506;24.192;2023-07-13T02:36:46;95731.16;;;18.02;83.04
61961;BME280;47923;42.506;24.192;2023-07-13T02:39:13;95442.25;;;15.93;82.07
61961;BME280;47923;42.506;24.192;2023-07-13T02:41:41;95577.13;;;17.01;80.53
61961;BME280;47923;42.506;24.192;2023-07-13T02:44:12;95746.31;;;18.13;82.07
61961;BME280;47923;42.506;24.192;2023-07-13T02:46:39;95721.38;;;18.08;82.86
61961;BME280;47923;42.506;24.192;2023-07-13T02:49:05;95734.59;;;18.16;83.22
61961;BME280;47923;42.506;24.192;2023-07-13T02:51:32;95744.34;;;18.17;83.67
61961;BME280;47923;42.506;24.192;2023-07-13T02:54:02;95753.38;;;18.11;83.25
61961;BME280;47923;42.506;24.192;2023-07-13T02:56:33;95758.47;;;18.09;83.08
61961;BME280;47923;42.506;24.192;2023-07-13T02:58:59;95751.03;;;18.09;82.73
61961;BME280;47923;42.506;24.192;2023-07-13T03:01:25;95756.13;;;18.04;83.86
61961;BME280;47923;42.506;24.192;2023-07-13T03:03:51;95755.41;;;18.00;83.81
61961;BME280;47923;42.506;24.192;2023-07-13T03:06:30;95500.56;;;16.27;83.11
61961;BME280;47923;42.506;24.192;2023-07-13T03:08:55;95709.09;;;17.71;82.63
61961;BME280;47923;42.506;24.192;2023-07-13T03:11:24;95751.03;;;18.09;82.44
61961;BME280;47923;42.506;24.192;2023-07-13T03:13:52;95513.69;;;16.75;81.46
61961;BME280;47923;42.506;24.192;2023-07-13T03:16:23;95744.63;;;18.34;81.74
61961;BME280;47923;42.506;24.192;2023-07-13T03:18:51;95744.16;;;18.42;79.41
61961;BME280;47923;42.506;24.192;2023-07-13T03:21:22;95719.59;;;18.35;80.09
61961;BME280;47923;42.506;24.192;2023-07-13T03:23:48;95511.94;;;17.10;79.77
61961;BME280;47923;42.506;24.192;2023-07-13T03:26:22;95583.41;;;17.71;78.74
61961;BME280;47923;42.506;24.192;2023-07-13T03:28:50;95741.19;;;18.78;77.18
61961;BME280;47923;42.506;24.192;2023-07-13T03:31:19;95732.91;;;18.89;76.17
61961;BME280;47923;42.506;24.192;2023-07-13T03:33:45;95695.91;;;18.73;76.68
61961;BME280;47923;42.506;24.192;2023-07-13T03:36:23;95740.03;;;19.17;76.12
61961;BME280;47923;42.506;24.192;2023-07-13T03:38:51;95741.06;;;19.33;75.58
61961;BME280;47923;42.506;24.192;2023-07-13T03:41:17;95602.91;;;18.63;74.38
61961;BME280;47923;42.506;24.192;2023-07-13T03:43:45;95740.06;;;19.54;73.75
61961;BME280;47923;42.506;24.192;2023-07-13T03:46:14;95687.59;;;19.52;73.75
61961;BME280;47923;42.506;24.192;2023-07-13T03:48:44;95689.41;;;19.97;72.86
61961;BME280;47923;42.506;24.192;2023-07-13T03:51:10;95721.78;;;21.89;66.29
61961;BME280;47923;42.506;24.192;2023-07-13T03:53:39;95735.09;;;23.99;58.69
61961;BME280;47923;42.506;24.192;2023-07-13T03:56:06;95737.06;;;25.48;51.86
61961;BME280;47923;42.506;24.192;2023-07-13T03:58:39;95726.50;;;26.21;49.33
61961;BME280;47923;42.506;24.192;2023-07-13T04:01:07;95734.59;;;27.73;44.82
61961;BME280;47923;42.506;24.192;2023-07-13T04:03:34;95730.19;;;28.69;42.77
61961;BME280;47923;42.506;24.192;2023-07-13T04:06:00;95594.47;;;27.68;42.01
61961;BME280;47923;42.506;24.192;2023-07-13T04:08:31;95556.97;;;27.73;41.14
61961;BME280;47923;42.506;24.192;2023-07-13T04:10:58;95711.38;;;30.13;38.73
61961;BME280;47923;42.506;24.192;2023-07-13T04:13:24;95323.28;;;28.07;36.73
61961;BME280;47923;42.506;24.192;2023-07-13T04:15:50;95729.94;;;31.57;35.69
61961;BME280;47923;42.506;24.192;2023-07-13T04:18:16;95735.25;;;32.01;34.65
61961;BME280;47923;42.506;24.192;2023-07-13T04:20:42;95736.13;;;32.70;33.68
61961;BME280;47923;42.506;24.192;2023-07-13T04:23:07;95691.56;;;32.98;32.47
61961;BME280;47923;42.506;24.192;2023-07-13T04:25:33;95684.19;;;33.55;31.21
61961;BME280;47923;42.506;24.192;2023-07-13T04:27:58;95626.97;;;34.46;29.33
61961;BME280;47923;42.506;24.192;2023-07-13T04:30:24;95732.59;;;35.57;28.59
61961;BME280;47923;42.506;24.192;2023-07-13T04:32:51;95745.72;;;35.90;27.55
61961;BME280;47923;42.506;24.192;2023-07-13T04:35:18;95742.31;;;35.56;28.37
61961;BME280;47923;42.506;24.192;2023-07-13T04:37:46;95738.97;;;35.58;28.20
61961;BME280;47923;42.506;24.192;2023-07-13T04:40:12;95190.75;;;32.76;27.24
61961;BME280;47923;42.506;24.192;2023-07-13T04:42:38;95621.59;;;36.16;26.58
61961;BME280;47923;42.506;24.192;2023-07-13T04:45:05;95736.66;;;37.29;25.88
61961;BME280;47923;42.506;24.192;2023-07-13T04:47:31;95734.63;;;37.29;26.31
61961;BME280;47923;42.506;24.192;2023-07-13T04:49:57;95394.25;;;35.53;25.38
61961;BME280;47923;42.506;24.192;2023-07-13T04:52:23;95732.22;;;38.52;24.29
61961;BME280;47923;42.506;24.192;2023-07-13T04:54:49;95732.06;;;39.35;23.54
61961;BME280;47923;42.506;24.192;2023-07-13T04:57:15;95500.50;;;38.29;22.82
61961;BME280;47923;42.506;24.192;2023-07-13T04:59:40;95726.47;;;39.96;23.58
61961;BME280;47923;42.506;24.192;2023-07-13T05:02:06;95692.97;;;40.55;22.42
61961;BME280;47923;42.506;24.192;2023-07-13T05:04:31;95729.13;;;40.70;21.72
61961;BME280;47923;42.506;24.192;2023-07-13T05:06:57;95515.06;;;39.55;21.45
61961;BME280;47923;42.506;24.192;2023-07-13T05:09:22;95409.38;;;39.58;20.66
61961;BME280;47923;42.506;24.192;2023-07-13T05:11:48;95421.19;;;39.48;21.33
61961;BME280;47923;42.506;24.192;2023-07-13T05:14:13;95678.56;;;40.95;20.85
61961;BME280;47923;42.506;24.192;2023-07-13T05:16:40;95722.13;;;42.36;20.41
61961;BME280;47923;42.506;24.192;2023-07-13T05:19:05;95604.03;;;42.10;19.74
61961;BME280;47923;42.506;24.192;2023-07-13T05:21:31;95640.56;;;42.52;18.85
61961;BME280;47923;42.506;24.192;2023-07-13T05:23:57;95554.91;;;41.49;19.68
61961;BME280;47923;42.506;24.192;2023-07-13T05:26:22;95727.50;;;43.09;19.37
61961;BME280;47923;42.506;24.192;2023-07-13T05:28:48;95729.88;;;44.46;18.85
61961;BME280;47923;42.506;24.192;2023-07-13T05:31:13;95706.69;;;44.50;17.94
61961;BME280;47923;42.506;24.192;2023-07-13T05:33:39;95691.25;;;43.95;18.58
61961;BME280;47923;42.506;24.192;2023-07-13T05:36:05;95644.94;;;42.84;18.53
61961;BME280;47923;42.506;24.192;2023-07-13T05:38:30;95699.59;;;44.33;18.06
61961;BME280;47923;42.506;24.192;2023-07-13T05:40:56;95451.72;;;42.99;17.81
61961;BME280;47923;42.506;24.192;2023-07-13T05:43:23;95740.38;;;44.36;17.96
61961;BME280;47923;42.506;24.192;2023-07-13T05:45:49;95738.78;;;44.50;17.64
61961;BME280;47923;42.506;24.192;2023-07-13T05:48:16;95720.88;;;43.84;18.37
61961;BME280;47923;42.506;24.192;2023-07-13T05:50:41;95745.41;;;44.53;18.08
61961;BME280;47923;42.506;24.192;2023-07-13T05:53:07;95662.38;;;46.57;16.34
61961;BME280;47923;42.506;24.192;2023-07-13T05:55:33;95651.59;;;48.70;15.07
61961;BME280;47923;42.506;24.192;2023-07-13T05:58:00;95733.16;;;49.62;13.93
61961;BME280;47923;42.506;24.192;2023-07-13T06:00:25;95730.22;;;48.67;14.26
61961;BME280;47923;42.506;24.192;2023-07-13T06:02:51;95711.69;;;47.98;14.31
61961;BME280;47923;42.506;24.192;2023-07-13T06:05:16;95732.28;;;48.16;15.21
61961;BME280;47923;42.506;24.192;2023-07-13T06:07:42;95739.53;;;47.78;15.11
61961;BME280;47923;42.506;24.192;2023-07-13T06:10:08;95735.59;;;48.32;14.80
61961;BME280;47923;42.506;24.192;2023-07-13T06:12:33;95733.56;;;48.54;14.47
61961;BME280;47923;42.506;24.192;2023-07-13T06:14:59;95732.66;;;49.02;13.91
61961;BME280;47923;42.506;24.192;2023-07-13T06:17:24;95521.38;;;47.89;13.85
61961;BME280;47923;42.506;24.192;2023-07-13T06:19:50;95651.34;;;48.66;13.69
61961;BME280;47923;42.506;24.192;2023-07-13T06:22:15;95737.78;;;49.24;13.56
61961;BME280;47923;42.506;24.192;2023-07-13T06:24:40;95693.16;;;48.50;14.03
61961;BME280;47923;42.506;24.192;2023-07-13T06:27:06;95725.91;;;50.16;13.04
61961;BME280;47923;42.506;24.192;2023-07-13T06:29:32;95722.78;;;51.03;12.02
61961;BME280;47923;42.506;24.192;2023-07-13T06:31:57;95740.53;;;51.11;12.16
61961;BME280;47923;42.506;24.192;2023-07-13T06:34:25;95729.41;;;51.29;11.62
61961;BME280;47923;42.506;24.192;2023-07-13T06:36:57;95692.84;;;52.06;11.80
61961;BME280;47923;42.506;24.192;2023-07-13T06:39:29;95731.03;;;52.32;11.22
61961;BME280;47923;42.506;24.192;2023-07-13T06:41:55;95725.50;;;51.85;11.43
61961;BME280;47923;42.506;24.192;2023-07-13T06:44:34;95663.78;;;48.49;13.01
61961;BME280;47923;42.506;24.192;2023-07-13T06:47:05;95724.31;;;49.70;11.99
61961;BME280;47923;42.506;24.192;2023-07-13T06:49:33;95607.28;;;50.72;11.05
61961;BME280;47923;42.506;24.192;2023-07-13T06:52:06;95731.44;;;52.66;10.67
61961;BME280;47923;42.506;24.192;2023-07-13T06:54:37;95709.31;;;53.80;9.74
61961;BME280;47923;42.506;24.192;2023-07-13T06:57:15;95720.44;;;51.60;11.38
61961;BME280;47923;42.506;24.192;2023-07-13T06:59:40;95721.13;;;52.10;11.19
61961;BME280;47923;42.506;24.192;2023-07-13T07:02:10;95673.84;;;54.23;10.15
61961;BME280;47923;42.506;24.192;2023-07-13T07:04:39;95635.78;;;52.69;9.86
61961;BME280;47923;42.506;24.192;2023-07-13T07:07:11;95696.00;;;51.73;10.97
61961;BME280;47923;42.506;24.192;2023-07-13T07:09:52;95670.16;;;52.65;10.55
61961;BME280;47923;42.506;24.192;2023-07-13T07:12:18;95619.34;;;51.54;10.88
61961;BME280;47923;42.506;24.192;2023-07-13T07:14:46;95630.09;;;52.30;10.88
61961;BME280;47923;42.506;24.192;2023-07-13T07:17:38;95702.03;;;50.81;11.87
61961;BME280;47923;42.506;24.192;2023-07-13T07:20:07;95680.56;;;51.43;11.73
61961;BME280;47923;42.506;24.192;2023-07-13T07:22:35;95637.38;;;50.36;12.30
61961;BME280;47923;42.506;24.192;2023-07-13T07:25:18;95686.63;;;51.98;11.62
61961;BME280;47923;42.506;24.192;2023-07-13T07:27:52;95662.09;;;51.72;12.00
61961;BME280;47923;42.506;24.192;2023-07-13T07:33:18;95520.97;;;50.95;11.97
61961;BME280;47923;42.506;24.192;2023-07-13T07:35:46;95694.78;;;53.78;11.64
61961;BME280;47923;42.506;24.192;2023-07-13T07:38:23;95515.94;;;51.98;11.41
61961;BME280;47923;42.506;24.192;2023-07-13T07:40:55;95692.69;;;54.56;10.39
61961;BME280;47923;42.506;24.192;2023-07-13T07:43:26;95697.47;;;53.61;11.33
61961;BME280;47923;42.506;24.192;2023-07-13T07:45:56;95692.78;;;50.48;12.07
61961;BME280;47923;42.506;24.192;2023-07-13T07:48:24;95637.16;;;47.38;12.56
61961;BME280;47923;42.506;24.192;2023-07-13T07:50:55;95692.06;;;48.55;13.42
61961;BME280;47923;42.506;24.192;2023-07-13T07:53:26;95597.47;;;51.12;11.87
61961;BME280;47923;42.506;24.192;2023-07-13T07:55:56;95525.31;;;51.33;10.58
61961;BME280;47923;42.506;24.192;2023-07-13T07:58:44;95672.66;;;53.12;8.80
61961;BME280;47923;42.506;24.192;2023-07-13T08:01:30;95692.75;;;52.96;9.59
61961;BME280;47923;42.506;24.192;2023-07-13T08:04:06;95687.28;;;54.48;8.40
61961;BME280;47923;42.506;24.192;2023-07-13T08:06:39;95593.88;;;52.96;8.01
61961;BME280;47923;42.506;24.192;2023-07-13T08:09:10;95688.84;;;53.47;7.55
61961;BME280;47923;42.506;24.192;2023-07-13T08:11:51;95664.69;;;53.83;7.95
61961;BME280;47923;42.506;24.192;2023-07-13T08:17:15;95655.41;;;52.45;8.76
61961;BME280;47923;42.506;24.192;2023-07-13T08:20:16;95693.34;;;53.09;8.76
61961;BME280;47923;42.506;24.192;2023-07-13T08:22:50;95236.50;;;51.82;7.88
61961;BME280;47923;42.506;24.192;2023-07-13T08:25:24;95663.59;;;54.52;7.49
61961;BME280;47923;42.506;24.192;2023-07-13T08:28:03;95675.44;;;53.97;7.97
61961;BME280;47923;42.506;24.192;2023-07-13T08:30:34;95680.19;;;54.67;7.99
61961;BME280;47923;42.506;24.192;2023-07-13T08:33:14;95658.06;;;53.38;7.86
61961;BME280;47923;42.506;24.192;2023-07-13T08:35:42;95674.69;;;52.82;8.12
61961;BME280;47923;42.506;24.192;2023-07-13T08:38:26;95672.63;;;52.71;8.38
61961;BME280;47923;42.506;24.192;2023-07-13T08:41:20;95676.56;;;53.33;8.18
61961;BME280;47923;42.506;24.192;2023-07-13T08:44:03;95582.75;;;53.18;7.81
61961;BME280;47923;42.506;24.192;2023-07-13T08:46:40;95578.50;;;52.22;8.53
61961;BME280;47923;42.506;24.192;2023-07-13T08:49:33;95665.44;;;53.41;8.34
61961;BME280;47923;42.506;24.192;2023-07-13T08:52:15;95588.22;;;52.43;8.77
61961;BME280;47923;42.506;24.192;2023-07-13T08:54:50;95630.13;;;52.71;7.86
61961;BME280;47923;42.506;24.192;2023-07-13T08:57:21;95659.16;;;52.48;8.50
61961;BME280;47923;42.506;24.192;2023-07-13T09:00:03;95647.75;;;53.05;8.35
61961;BME280;47923;42.506;24.192;2023-07-13T09:02:59;95666.44;;;53.04;8.19
61961;BME280;47923;42.506;24.192;2023-07-13T09:05:38;95661.31;;;52.61;8.45
61961;BME280;47923;42.506;24.192;2023-07-13T09:11:32;95571.28;;;52.90;8.77
61961;BME280;47923;42.506;24.192;2023-07-13T09:16:59;95649.00;;;54.97;7.76
61961;BME280;47923;42.506;24.192;2023-07-13T09:19:28;95579.28;;;54.26;7.25
61961;BME280;47923;42.506;24.192;2023-07-13T09:21:55;95650.72;;;54.23;7.79
61961;BME280;47923;42.506;24.192;2023-07-13T09:24:46;95645.47;;;54.35;8.29
61961;BME280;47923;42.506;24.192;2023-07-13T09:31:06;95640.47;;;53.18;8.56
61961;BME280;47923;42.506;24.192;2023-07-13T09:33:24;95643.25;;;52.47;8.33
61961;BME280;47923;42.506;24.192;2023-07-13T09:35:58;95642.13;;;52.27;8.65
61961;BME280;47923;42.506;24.192;2023-07-13T09:38:31;95643.38;;;53.04;8.73
61961;BME280;47923;42.506;24.192;2023-07-13T09:44:16;95645.47;;;54.20;7.75
61961;BME280;47923;42.506;24.192;2023-07-13T09:47:03;95560.72;;;52.54;8.58
61961;BME280;47923;42.506;24.192;2023-07-13T09:49:43;95433.47;;;52.32;8.51
61961;BME280;47923;42.506;24.192;2023-07-13T09:52:18;95647.25;;;53.38;8.44
61961;BME280;47923;42.506;24.192;2023-07-13T09:54:49;95632.19;;;53.99;8.17
61961;BME280;47923;42.506;24.192;2023-07-13T09:57:22;95619.63;;;53.06;8.03
61961;BME280;47923;42.506;24.192;2023-07-13T09:59:50;95521.78;;;52.96;8.25
61961;BME280;47923;42.506;24.192;2023-07-13T10:02:23;95635.28;;;54.03;8.28
61961;BME280;47923;42.506;24.192;2023-07-13T10:04:55;95626.69;;;54.05;8.06
61961;BME280;47923;42.506;24.192;2023-07-13T10:07:22;95637.97;;;53.99;7.93
61961;BME280;47923;42.506;24.192;2023-07-13T10:09:52;95590.28;;;54.95;7.42
61961;BME280;47923;42.506;24.192;2023-07-13T10:12:19;95588.88;;;53.40;7.29
61961;BME280;47923;42.506;24.192;2023-07-13T10:14:45;95524.41;;;52.35;8.11
61961;BME280;47923;42.506;24.192;2023-07-13T10:17:13;95617.59;;;52.39;8.64
61961;BME280;47923;42.506;24.192;2023-07-13T10:19:41;95617.78;;;52.16;8.84
61961;BME280;47923;42.506;24.192;2023-07-13T10:22:54;95616.44;;;53.13;8.03
61961;BME280;47923;42.506;24.192;2023-07-13T10:25:00;95625.84;;;52.72;8.36
61961;BME280;47923;42.506;24.192;2023-07-13T10:27:33;95580.72;;;52.10;9.19
61961;BME280;47923;42.506;24.192;2023-07-13T10:30:21;95570.75;;;51.60;8.65
61961;BME280;47923;42.506;24.192;2023-07-13T10:32:50;95608.72;;;51.82;9.18
61961;BME280;47923;42.506;24.192;2023-07-13T10:35:19;95626.72;;;52.75;9.20
61961;BME280;47923;42.506;24.192;2023-07-13T10:38:04;95568.81;;;52.16;8.40
61961;BME280;47923;42.506;24.192;2023-07-13T10:40:37;95600.53;;;50.67;10.00
61961;BME280;47923;42.506;24.192;2023-07-13T10:43:11;95483.81;;;49.12;10.56
61961;BME280;47923;42.506;24.192;2023-07-13T10:45:39;95575.25;;;49.17;10.44
61961;BME280;47923;42.506;24.192;2023-07-13T10:48:09;95106.88;;;44.54;12.18
61961;BME280;47923;42.506;24.192;2023-07-13T10:50:40;95596.47;;;47.69;12.14
61961;BME280;47923;42.506;24.192;2023-07-13T11:00:48;95602.25;;;44.52;13.40
61961;BME280;47923;42.506;24.192;2023-07-13T11:03:17;95555.41;;;43.71;14.37
61961;BME280;47923;42.506;24.192;2023-07-13T11:05:43;95599.53;;;44.37;14.50
61961;BME280;47923;42.506;24.192;2023-07-13T11:08:20;95597.88;;;44.01;13.95
61961;BME280;47923;42.506;24.192;2023-07-13T11:10:55;95606.59;;;43.23;14.26
61961;BME280;47923;42.506;24.192;2023-07-13T11:13:37;95606.28;;;42.88;15.68
61961;BME280;47923;42.506;24.192;2023-07-13T11:16:35;95589.84;;;42.48;15.70
61961;BME280;47923;42.506;24.192;2023-07-13T11:21:27;95497.50;;;41.79;14.85
61961;BME280;47923;42.506;24.192;2023-07-13T11:24:28;95305.53;;;40.15;15.43
61961;BME280;47923;42.506;24.192;2023-07-13T11:26:55;95499.91;;;41.36;16.07
61961;BME280;47923;42.506;24.192;2023-07-13T11:29:25;95572.22;;;41.81;16.66
61961;BME280;47923;42.506;24.192;2023-07-13T11:31:53;95585.00;;;41.67;16.47
61961;BME280;47923;42.506;24.192;2023-07-13T11:34:29;95569.69;;;41.62;16.22
61961;BME280;47923;42.506;24.192;2023-07-13T11:36:58;95340.84;;;40.22;15.94
61961;BME280;47923;42.506;24.192;2023-07-13T11:39:27;95573.19;;;41.32;16.26
61961;BME280;47923;42.506;24.192;2023-07-13T11:42:00;95547.50;;;40.94;16.29
61961;BME280;47923;42.506;24.192;2023-07-13T11:44:29;95569.03;;;40.69;17.81
61961;BME280;47923;42.506;24.192;2023-07-13T11:47:08;95568.75;;;40.51;17.70
61961;BME280;47923;42.506;24.192;2023-07-13T11:49:43;95530.66;;;40.31;17.14
61961;BME280;47923;42.506;24.192;2023-07-13T11:52:18;95559.75;;;40.40;17.90
61961;BME280;47923;42.506;24.192;2023-07-13T11:54:53;95550.84;;;40.07;18.15
61961;BME280;47923;42.506;24.192;2023-07-13T11:57:32;95562.53;;;40.03;17.84
61961;BME280;47923;42.506;24.192;2023-07-13T12:00:01;95455.75;;;39.20;16.80
61961;BME280;47923;42.506;24.192;2023-07-13T12:02:31;95465.34;;;39.17;17.34
61961;BME280;47923;42.506;24.192;2023-07-13T12:04:58;95558.47;;;39.78;17.23
61961;BME280;47923;42.506;24.192;2023-07-13T12:07:28;95549.03;;;39.75;17.61
61961;BME280;47923;42.506;24.192;2023-07-13T12:10:00;95542.34;;;39.65;17.69
61961;BME280;47923;42.506;24.192;2023-07-13T12:12:28;95542.22;;;39.58;17.60
61961;BME280;47923;42.506;24.192;2023-07-13T12:14:55;95316.97;;;38.01;17.53
61961;BME280;47923;42.506;24.192;2023-07-13T12:17:22;95532.03;;;39.55;16.23
61961;BME280;47923;42.506;24.192;2023-07-13T12:19:50;95536.34;;;39.35;16.91
61961;BME280;47923;42.506;24.192;2023-07-13T12:22:17;95550.19;;;39.25;16.93
61961;BME280;47923;42.506;24.192;2023-07-13T12:24:44;95493.44;;;38.89;16.20
61961;BME280;47923;42.506;24.192;2023-07-13T12:27:22;95473.03;;;38.69;16.93
61961;BME280;47923;42.506;24.192;2023-07-13T12:30:02;95516.84;;;38.97;16.73
61961;BME280;47923;42.506;24.192;2023-07-13T12:32:28;95210.38;;;36.93;16.16
61961;BME280;47923;42.506;24.192;2023-07-13T12:35:18;95536.59;;;39.10;16.55
61961;BME280;47923;42.506;24.192;2023-07-13T12:37:48;95525.75;;;39.14;16.50
61961;BME280;47923;42.506;24.192;2023-07-13T12:40:19;95393.09;;;38.14;16.07
61961;BME280;47923;42.506;24.192;2023-07-13T12:42:56;95524.78;;;38.98;16.24
61961;BME280;47923;42.506;24.192;2023-07-13T12:45:35;95447.22;;;38.52;16.10
61961;BME280;47923;42.506;24.192;2023-07-13T12:48:13;95485.72;;;38.89;17.19
61961;BME280;47923;42.506;24.192;2023-07-13T12:51:21;95422.91;;;38.23;17.08
61961;BME280;47923;42.506;24.192;2023-07-13T12:54:15;95470.00;;;38.54;17.02
61961;BME280;47923;42.506;24.192;2023-07-13T12:57:05;95438.75;;;38.26;17.65
61961;BME280;47923;42.506;24.192;2023-07-13T12:59:57;95504.09;;;38.56;17.86
61961;BME280;47923;42.506;24.192;2023-07-13T13:02:51;95394.72;;;37.83;17.69
61961;BME280;47923;42.506;24.192;2023-07-13T13:05:27;95474.03;;;38.46;17.72
61961;BME280;47923;42.506;24.192;2023-07-13T13:07:58;95492.78;;;38.69;18.40
61961;BME280;47923;42.506;24.192;2023-07-13T13:10:27;95332.88;;;37.72;17.50
61961;BME280;47923;42.506;24.192;2023-07-13T13:12:52;95374.22;;;37.96;17.63
61961;BME280;47923;42.506;24.192;2023-07-13T13:15:18;95127.31;;;36.28;17.63
61961;BME280;47923;42.506;24.192;2023-07-13T13:17:44;95480.22;;;38.44;17.97
61961;BME280;47923;42.506;24.192;2023-07-13T13:20:18;95473.47;;;38.60;18.41
61961;BME280;47923;42.506;24.192;2023-07-13T13:22:45;95384.63;;;38.01;18.11
61961;BME280;47923;42.506;24.192;2023-07-13T13:25:15;95424.00;;;38.33;18.78
61961;BME280;47923;42.506;24.192;2023-07-13T13:27:41;95413.91;;;38.11;17.94
61961;BME280;47923;42.506;24.192;2023-07-13T13:30:11;95461.78;;;38.43;18.48
61961;BME280;47923;42.506;24.192;2023-07-13T13:32:41;95463.19;;;38.36;17.93
61961;BME280;47923;42.506;24.192;2023-07-13T13:35:30;95463.63;;;38.27;18.12
61961;BME280;47923;42.506;24.192;2023-07-13T13:38:14;95458.41;;;38.31;18.38
61961;BME280;47923;42.506;24.192;2023-07-13T13:40:51;95371.16;;;37.54;18.46
61961;BME280;47923;42.506;24.192;2023-07-13T13:43:22;95375.59;;;37.76;19.04